createdAt,value
2018-12-14T00:00:28.188Z,10.40
2018-12-14T00:05:31.295Z,11.43
2018-12-14T00:10:34.373Z,9.80
2018-12-14T00:15:37.483Z,11.75
2018-12-14T00:20:40.560Z,10.40
2018-12-14T00:25:43.639Z,11.03
2018-12-14T00:30:46.717Z,9.80
2018-12-14T00:35:49.828Z,10.83
2018-12-14T00:40:52.937Z,9.87
2018-12-14T00:45:56.044Z,9.67
2018-12-14T00:50:59.119Z,13.13
2018-12-14T00:56:02.231Z,10.67
2018-12-14T01:01:05.315Z,11.40
2018-12-14T01:06:08.416Z,9.83
2018-12-14T01:11:11.497Z,10.13
2018-12-14T01:16:14.572Z,10.80
2018-12-14T01:21:17.886Z,9.88
2018-12-14T01:26:21.073Z,9.90
2018-12-14T01:31:24.152Z,9.03
2018-12-14T01:36:27.386Z,8.90
2018-12-14T01:41:30.459Z,11.13
2018-12-14T01:46:33.968Z,10.20
2018-12-14T01:51:37.040Z,9.50
2018-12-14T01:56:40.197Z,10.73
2018-12-14T02:01:43.847Z,10.03
2018-12-14T02:06:46.922Z,9.50
2018-12-14T02:11:50.000Z,8.90
2018-12-14T02:16:53.254Z,9.70
2018-12-14T02:21:56.335Z,8.87
2018-12-14T02:26:59.407Z,9.37
2018-12-14T02:32:02.551Z,11.37
2018-12-14T02:37:05.755Z,10.93
2018-12-14T02:42:08.941Z,11.70
2018-12-14T02:47:12.104Z,9.90
2018-12-14T02:52:15.179Z,10.47
2018-12-14T02:57:18.283Z,8.77
2018-12-14T03:02:21.502Z,7.70
2018-12-14T03:07:24.656Z,7.97
2018-12-14T03:12:27.743Z,8.83
2018-12-14T03:17:30.900Z,7.47
2018-12-14T03:22:34.310Z,6.67
2018-12-14T03:27:37.380Z,7.83
2018-12-14T03:32:40.522Z,7.70
2018-12-14T03:37:43.691Z,8.50
2018-12-14T03:42:46.774Z,7.47
2018-12-14T03:47:49.857Z,8.37
2018-12-14T03:52:52.928Z,7.65
2018-12-14T03:57:56.339Z,7.95
2018-12-14T04:02:59.751Z,6.90
2018-12-14T04:08:02.831Z,7.30
2018-12-14T04:13:05.938Z,8.90
2018-12-14T04:18:09.062Z,8.00
2018-12-14T04:23:12.227Z,8.30
2018-12-14T04:28:15.310Z,9.07
2018-12-14T04:33:18.764Z,8.50
2018-12-14T04:38:21.823Z,10.20
2018-12-14T04:43:24.943Z,8.47
2018-12-14T04:48:28.040Z,8.87
2018-12-14T04:53:31.150Z,10.70
2018-12-14T04:58:34.235Z,10.57
2018-12-14T05:03:37.316Z,9.90
2018-12-14T05:08:40.424Z,11.33
2018-12-14T05:13:43.509Z,9.60
2018-12-14T05:18:46.585Z,9.37
2018-12-14T05:23:49.708Z,9.80
2018-12-14T05:28:52.790Z,10.60
2018-12-14T05:33:55.876Z,11.10
2018-12-14T05:38:58.995Z,10.60
2018-12-14T05:44:02.251Z,9.50
2018-12-14T05:49:05.372Z,10.60
2018-12-14T05:54:08.449Z,10.77
2018-12-14T05:59:11.535Z,10.37
2018-12-14T06:04:14.630Z,10.03
2018-12-14T06:09:17.702Z,8.87
2018-12-14T06:14:20.929Z,10.93
2018-12-14T06:19:24.045Z,8.45
2018-12-14T06:24:27.117Z,7.03
2018-12-14T06:29:30.200Z,9.13
2018-12-14T06:34:33.309Z,9.43
2018-12-14T06:39:36.427Z,9.80
2018-12-14T06:44:39.526Z,10.93
2018-12-14T06:49:42.612Z,10.77
2018-12-14T06:54:45.688Z,8.60
2018-12-14T06:59:48.913Z,8.40
2018-12-14T07:04:51.999Z,10.77
2018-12-14T07:09:55.116Z,10.87
2018-12-14T07:14:58.236Z,8.57
2018-12-14T07:20:01.322Z,8.90
2018-12-14T07:25:04.870Z,9.50
2018-12-14T07:30:08.095Z,9.70
2018-12-14T07:35:11.177Z,8.70
2018-12-14T07:40:14.282Z,8.23
2018-12-14T07:45:17.365Z,8.00
2018-12-14T07:50:20.460Z,8.10
2018-12-14T07:55:23.540Z,8.90
2018-12-14T08:00:26.657Z,10.03
2018-12-14T08:05:29.745Z,9.80
2018-12-14T08:10:32.863Z,9.60
2018-12-14T08:15:36.055Z,9.63
2018-12-14T08:20:39.258Z,10.60
2018-12-14T08:25:42.321Z,10.20
2018-12-14T08:30:45.411Z,10.03
2018-12-14T08:35:48.499Z,10.27
2018-12-14T08:40:51.679Z,8.10
2018-12-14T08:45:54.774Z,10.43
2018-12-14T08:50:57.921Z,10.87
2018-12-14T08:56:01.121Z,13.08
2018-12-14T09:01:04.241Z,10.87
2018-12-14T09:06:07.333Z,10.10
2018-12-14T09:11:10.431Z,10.43
2018-12-14T09:16:13.511Z,12.73
2018-12-14T09:21:16.593Z,10.90
2018-12-14T09:26:19.710Z,10.23
2018-12-14T09:31:22.877Z,10.63
2018-12-14T09:36:25.994Z,10.60
2018-12-14T09:41:29.095Z,10.37
2018-12-14T09:46:37.025Z,10.88
2018-12-14T09:51:37.277Z,10.25
2018-12-14T09:56:40.389Z,12.17
2018-12-14T10:01:43.468Z,11.07
2018-12-14T10:06:47.419Z,9.83
2018-12-14T10:11:55.110Z,11.10
2018-12-14T10:16:55.701Z,9.93
2018-12-14T10:21:58.785Z,13.93
2018-12-14T10:27:01.878Z,11.53
2018-12-14T10:32:05.016Z,12.50
2018-12-14T10:37:08.121Z,11.12
2018-12-14T10:42:11.276Z,12.93
2018-12-14T10:47:14.364Z,11.93
2018-12-14T10:52:17.508Z,11.60
2018-12-14T10:57:20.661Z,12.33
2018-12-14T11:02:23.782Z,12.23
2018-12-14T11:07:26.868Z,14.07
2018-12-14T11:12:29.948Z,13.03
2018-12-14T11:17:33.047Z,15.20
2018-12-14T11:22:36.129Z,11.63
2018-12-14T11:27:39.241Z,13.43
2018-12-14T11:32:42.305Z,14.90
2018-12-14T11:37:45.383Z,14.10
2018-12-14T11:42:48.480Z,12.20
2018-12-14T11:47:51.560Z,12.23
2018-12-14T11:52:54.765Z,12.20
2018-12-14T11:57:57.854Z,11.57
2018-12-14T12:03:00.956Z,12.07
2018-12-14T12:08:04.124Z,13.17
2018-12-14T12:13:07.243Z,12.03
2018-12-14T12:18:10.333Z,12.25
2018-12-14T12:23:13.421Z,12.07
2018-12-14T12:28:16.515Z,12.97
2018-12-14T12:33:19.594Z,11.00
2018-12-14T12:38:22.667Z,11.73
2018-12-14T12:43:25.815Z,12.43
2018-12-14T12:48:28.887Z,13.23
2018-12-14T12:53:32.004Z,10.73
2018-12-14T12:58:35.100Z,11.53
2018-12-14T13:03:38.182Z,12.77
2018-12-14T13:08:41.285Z,12.13
2018-12-14T13:13:44.369Z,12.57
2018-12-14T13:18:47.455Z,11.47
2018-12-14T13:23:50.587Z,11.37
2018-12-14T13:28:53.683Z,12.10
2018-12-14T13:33:56.763Z,11.63
2018-12-14T13:38:59.823Z,11.00
2018-12-14T13:44:02.915Z,12.03
2018-12-14T13:49:06.272Z,12.60
2018-12-14T13:54:09.356Z,12.13
2018-12-14T13:59:12.439Z,13.57
2018-12-14T14:04:15.584Z,13.93
2018-12-14T14:09:18.712Z,14.33
2018-12-14T14:14:21.831Z,13.22
2018-12-14T14:19:25.758Z,13.23
2018-12-14T14:24:29.094Z,14.07
2018-12-14T14:29:32.155Z,14.50
2018-12-14T14:34:35.238Z,13.60
2018-12-14T14:39:38.557Z,13.33
2018-12-14T14:44:41.650Z,12.78
2018-12-14T14:49:44.731Z,13.27
2018-12-14T14:54:49.811Z,14.50
2018-12-14T14:59:52.876Z,14.10
2018-12-14T15:04:56.879Z,14.57
2018-12-14T15:10:00.029Z,15.20
2018-12-14T15:15:06.533Z,13.73
2018-12-14T15:20:08.449Z,14.93
2018-12-14T15:25:11.872Z,11.83
2018-12-14T15:30:14.995Z,10.37
2018-12-14T15:35:18.121Z,9.77
2018-12-14T15:40:21.308Z,8.33
2018-12-14T15:45:24.387Z,8.53
2018-12-14T15:50:27.494Z,8.90
2018-12-14T15:55:30.563Z,8.87
2018-12-14T16:00:33.781Z,8.77
2018-12-14T16:05:36.861Z,8.50
2018-12-14T16:10:39.968Z,8.93
2018-12-14T16:15:43.146Z,8.50
2018-12-14T16:20:46.294Z,9.63
2018-12-14T16:25:49.471Z,9.48
2018-12-14T16:30:52.617Z,8.70
2018-12-14T16:35:56.016Z,10.50
2018-12-14T16:40:59.484Z,8.37
2018-12-14T16:46:02.563Z,10.23
2018-12-14T16:51:05.817Z,10.47
2018-12-14T16:56:09.840Z,8.90
2018-12-14T17:01:13.232Z,10.83
2018-12-14T17:06:16.433Z,9.10
2018-12-14T17:11:19.576Z,9.00
2018-12-14T17:16:22.715Z,9.33
2018-12-14T17:21:25.924Z,11.17
2018-12-14T17:26:29.113Z,9.40
2018-12-14T17:31:32.184Z,10.07
2018-12-14T17:36:35.564Z,9.43
2018-12-14T17:41:38.810Z,8.37
2018-12-14T17:46:42.040Z,9.03
2018-12-14T17:51:45.279Z,9.30
2018-12-14T17:56:48.411Z,9.57
2018-12-14T18:01:51.549Z,9.33
2018-12-14T18:06:54.625Z,9.00
2018-12-14T18:11:57.692Z,8.97
2018-12-14T18:17:00.789Z,8.73
2018-12-14T18:22:04.016Z,7.92
2018-12-14T18:27:07.164Z,8.70
2018-12-14T18:32:10.242Z,7.77
2018-12-14T18:37:13.713Z,7.53
2018-12-14T18:42:16.840Z,7.03
2018-12-14T18:47:20.032Z,6.93
2018-12-14T18:52:23.098Z,7.00
2018-12-14T18:57:26.492Z,7.40
2018-12-14T19:02:29.563Z,7.97
2018-12-14T19:07:32.631Z,9.97
2018-12-14T19:12:35.887Z,9.73
2018-12-14T19:17:39.017Z,8.93
2018-12-14T19:22:42.146Z,8.73
2018-12-14T19:27:45.270Z,8.10
2018-12-14T19:32:48.453Z,8.20
2018-12-14T19:37:51.619Z,8.40
2018-12-14T19:42:54.770Z,8.35
2018-12-14T19:47:57.901Z,8.17
2018-12-14T19:53:01.049Z,8.70
2018-12-14T19:58:04.261Z,9.07
2018-12-14T20:03:07.455Z,9.13
2018-12-14T20:08:12.337Z,10.17
2018-12-14T20:13:15.542Z,10.40
2018-12-14T20:18:18.696Z,9.70
2018-12-14T20:23:21.835Z,9.65
2018-12-14T20:28:24.963Z,9.97
2018-12-14T20:33:28.086Z,9.93
2018-12-14T20:38:31.199Z,9.93
2018-12-14T20:43:34.328Z,10.70
2018-12-14T20:48:37.444Z,10.10
2018-12-14T20:53:40.575Z,10.37
2018-12-14T20:58:43.696Z,11.60
2018-12-14T21:03:46.806Z,10.27
2018-12-14T21:08:49.901Z,12.10
2018-12-14T21:13:53.012Z,11.53
2018-12-14T21:18:56.112Z,12.47
2018-12-14T21:23:59.242Z,12.47
2018-12-14T21:29:02.381Z,12.60
2018-12-14T21:34:05.528Z,14.17
2018-12-14T21:39:08.625Z,13.33
2018-12-14T21:44:11.712Z,14.00
2018-12-14T21:49:14.801Z,16.23
2018-12-14T21:54:17.890Z,16.57
2018-12-14T21:59:20.987Z,17.07
2018-12-14T22:04:24.096Z,18.52
2018-12-14T22:09:27.172Z,16.20
2018-12-14T22:14:30.353Z,13.23
2018-12-14T22:19:33.445Z,15.07
2018-12-14T22:24:36.539Z,16.50
2018-12-14T22:29:39.624Z,13.83
2018-12-14T22:34:42.711Z,12.97
2018-12-14T22:39:45.805Z,13.90
2018-12-14T22:44:49.000Z,15.70
2018-12-14T22:49:52.092Z,14.20
2018-12-14T22:54:55.183Z,15.63
2018-12-14T22:59:58.356Z,13.87
2018-12-14T23:05:01.445Z,14.37
2018-12-14T23:10:05.588Z,14.27
2018-12-14T23:15:08.739Z,12.57
2018-12-14T23:20:11.851Z,15.00
2018-12-14T23:25:14.944Z,12.57
2018-12-14T23:30:18.030Z,13.28
2018-12-14T23:35:21.119Z,10.90
2018-12-14T23:40:24.204Z,11.87
2018-12-14T23:45:27.300Z,12.73
2018-12-14T23:50:30.382Z,10.20
2018-12-14T23:55:33.465Z,11.73
